Time;durP1;ratioP1;P1;durP2;ratioP2;P2;SDS_P1;SDS_P2;PMS_P1;PMS_P2;Temp;Humidity;BMP_temperature;BMP_pressure;BME280_temperature;BME280_humidity;BME280_pressure;Samples;Min_cycle;Max_cycle;Signal;HPM_P1;HPM_P2
2022/07/01 00:01:59;;;;;;;177.73;167.00;;;15.30;99.90;;;;;;5034181;28;20233;-75
2022/07/01 00:04:27;;;;;;;199.93;187.43;;;15.30;99.90;;;;;;5032478;28;20210;-76
2022/07/01 00:06:56;;;;;;;54.10;50.67;;;15.30;99.90;;;;;;5033098;28;20186;-76
2022/07/01 00:09:23;;;;;;;26.47;24.93;;;15.20;99.90;;;;;;5033579;28;20198;-73
2022/07/01 00:11:50;;;;;;;39.73;36.47;;;15.20;99.90;;;;;;5035578;28;20199;-75
2022/07/01 00:14:16;;;;;;;50.80;47.50;;;15.30;99.90;;;;;;5033794;28;20340;-75
2022/07/01 00:16:42;;;;;;;40.90;38.37;;;15.30;99.90;;;;;;5034904;28;20260;-75
2022/07/01 00:19:08;;;;;;;41.83;39.53;;;15.20;99.90;;;;;;5032580;28;20615;-75
2022/07/01 00:21:34;;;;;;;101.70;95.13;;;15.20;99.90;;;;;;5033171;28;20179;-75
2022/07/01 00:24:00;;;;;;;162.90;147.37;;;15.20;99.90;;;;;;5032830;28;20732;-75
2022/07/01 00:26:26;;;;;;;77.37;72.03;;;15.20;99.90;;;;;;5032711;28;20727;-75
2022/07/01 00:28:52;;;;;;;116.73;110.17;;;15.20;99.90;;;;;;5032275;28;20262;-75
2022/07/01 00:31:17;;;;;;;28.30;26.50;;;15.10;99.90;;;;;;5033118;28;20175;-76
2022/07/01 00:33:43;;;;;;;29.90;27.63;;;15.00;99.90;;;;;;5033025;28;20214;-75
2022/07/01 00:36:09;;;;;;;26.13;24.40;;;15.00;99.90;;;;;;5031968;28;20183;-75
2022/07/01 00:38:35;;;;;;;11.30;10.70;;;15.10;99.90;;;;;;5032276;28;20525;-75
2022/07/01 00:41:01;;;;;;;19.83;18.67;;;15.00;99.90;;;;;;5033457;28;20275;-75
2022/07/01 00:43:26;;;;;;;29.87;27.97;;;14.90;99.90;;;;;;5032939;28;20189;-75
2022/07/01 00:45:52;;;;;;;44.20;41.37;;;14.90;99.90;;;;;;5031732;28;20207;-75
2022/07/01 00:48:20;;;;;;;46.83;44.17;;;14.80;99.90;;;;;;5031199;28;20183;-75
2022/07/01 00:50:47;;;;;;;63.33;59.87;;;14.70;99.90;;;;;;5031758;28;20229;-75
2022/07/01 00:53:14;;;;;;;70.83;67.27;;;14.70;99.90;;;;;;5032843;28;20187;-75
2022/07/01 00:55:41;;;;;;;56.23;52.67;;;14.60;99.90;;;;;;5032657;28;20226;-75
2022/07/01 00:58:08;;;;;;;43.73;41.23;;;14.60;99.90;;;;;;5031652;28;20264;-75
2022/07/01 01:00:34;;;;;;;27.67;25.90;;;14.60;99.90;;;;;;5033053;28;20560;-74
2022/07/01 01:03:00;;;;;;;14.53;13.90;;;14.50;99.90;;;;;;5032937;28;20683;-75
2022/07/01 01:05:26;;;;;;;32.00;30.23;;;14.40;99.90;;;;;;5031219;28;20253;-75
2022/07/01 01:07:52;;;;;;;31.60;29.43;;;14.40;99.90;;;;;;5031808;28;20191;-75
2022/07/01 01:10:18;;;;;;;35.00;33.20;;;14.30;99.90;;;;;;5032543;28;20179;-74
2022/07/01 01:12:44;;;;;;;36.37;34.27;;;14.30;99.90;;;;;;5032327;28;20644;-75
2022/07/01 01:15:17;;;;;;;71.43;67.27;;;14.30;99.90;;;;;;5032291;28;20219;-75
2022/07/01 01:17:42;;;;;;;72.87;68.97;;;14.30;99.90;;;;;;5031412;28;20284;-75
2022/07/01 01:20:08;;;;;;;100.40;95.17;;;14.30;99.90;;;;;;5032327;28;20278;-75
2022/07/01 01:22:34;;;;;;;93.57;88.97;;;14.30;99.90;;;;;;5031082;28;20190;-76
2022/07/01 01:25:00;;;;;;;137.10;130.00;;;14.40;99.90;;;;;;5031277;28;20199;-75
2022/07/01 01:27:26;;;;;;;132.37;125.53;;;14.30;99.90;;;;;;5030033;28;20437;-74
2022/07/01 01:29:52;;;;;;;204.83;193.83;;;14.30;99.90;;;;;;5032121;28;20182;-74
2022/07/01 01:32:18;;;;;;;202.47;191.40;;;14.20;99.90;;;;;;5030883;28;20179;-74
2022/07/01 01:34:43;;;;;;;156.07;147.73;;;14.20;99.90;;;;;;5031655;28;20199;-74
2022/07/01 01:37:09;;;;;;;109.47;103.73;;;14.10;99.90;;;;;;5031131;28;20294;-75
2022/07/01 01:39:37;;;;;;;163.67;155.27;;;14.00;99.90;;;;;;5033080;28;20521;-75
2022/07/01 01:42:07;;;;;;;146.00;138.00;;;13.90;99.90;;;;;;5033549;28;20179;-74
2022/07/01 01:44:33;;;;;;;150.47;142.13;;;13.80;99.90;;;;;;5031958;28;20203;-74
2022/07/01 01:46:59;;;;;;;195.03;184.57;;;13.70;99.90;;;;;;5031048;28;20183;-74
2022/07/01 01:49:25;;;;;;;252.33;237.93;;;13.70;99.90;;;;;;5031560;28;20244;-74
2022/07/01 01:51:51;;;;;;;145.17;137.33;;;13.60;99.90;;;;;;5031686;28;20183;-74
2022/07/01 01:54:16;;;;;;;175.17;166.13;;;13.60;99.90;;;;;;5030425;28;20203;-74
2022/07/01 01:56:42;;;;;;;228.77;216.63;;;13.70;99.90;;;;;;5031507;28;20215;-75
2022/07/01 01:59:08;;;;;;;114.83;109.03;;;13.70;99.90;;;;;;5031501;28;20187;-75
2022/07/01 02:01:34;;;;;;;130.87;124.23;;;13.70;99.90;;;;;;5031807;28;20191;-75
2022/07/01 02:03:59;;;;;;;154.03;146.10;;;13.80;99.90;;;;;;5031418;28;20218;-76
2022/07/01 02:06:25;;;;;;;144.80;137.27;;;13.80;99.90;;;;;;5031611;28;20179;-74
2022/07/01 02:08:51;;;;;;;115.80;109.87;;;13.80;99.90;;;;;;5029487;28;20556;-75
2022/07/01 02:11:17;;;;;;;65.03;61.57;;;13.90;99.90;;;;;;5030123;28;20179;-75
2022/07/01 02:13:44;;;;;;;33.93;32.23;;;13.80;99.90;;;;;;5030262;28;20182;-75
2022/07/01 02:16:10;;;;;;;34.77;33.13;;;13.80;99.90;;;;;;5031544;28;20193;-75
2022/07/01 02:18:36;;;;;;;39.10;37.03;;;13.80;99.90;;;;;;5030662;28;20565;-74
2022/07/01 02:21:02;;;;;;;17.27;16.33;;;13.80;99.90;;;;;;5030346;28;20183;-75
2022/07/01 02:23:29;;;;;;;6.67;6.47;;;13.80;99.90;;;;;;5030258;28;20274;-75
2022/07/01 02:25:55;;;;;;;6.00;5.80;;;13.70;99.90;;;;;;5031510;28;20258;-75
2022/07/01 02:28:21;;;;;;;7.43;7.13;;;13.60;99.90;;;;;;5031038;28;20179;-75
2022/07/01 02:30:47;;;;;;;6.40;5.90;;;13.60;99.90;;;;;;5030235;28;20270;-75
2022/07/01 02:33:19;;;;;;;4.97;4.77;;;13.60;99.90;;;;;;5030240;28;20558;-75
2022/07/01 02:35:45;;;;;;;5.13;4.73;;;13.60;99.90;;;;;;5031333;28;20301;-75
2022/07/01 02:38:11;;;;;;;4.93;4.73;;;13.50;99.90;;;;;;5030365;28;20297;-75
2022/07/01 02:40:42;;;;;;;9.90;9.47;;;13.60;99.90;;;;;;5031215;28;20341;-74
2022/07/01 02:43:08;;;;;;;13.50;12.97;;;13.70;99.90;;;;;;5031179;28;20532;-75
2022/07/01 02:45:34;;;;;;;4.83;4.60;;;13.70;99.90;;;;;;5031985;28;20253;-74
2022/07/01 02:48:01;;;;;;;5.47;5.17;;;13.80;99.90;;;;;;5036833;28;20186;-74
2022/07/01 02:50:27;;;;;;;5.57;5.37;;;13.80;99.90;;;;;;5036585;28;20182;-75
2022/07/01 02:52:54;;;;;;;5.10;4.90;;;13.90;99.90;;;;;;5037826;28;20179;-75
2022/07/01 02:55:19;;;;;;;6.83;6.50;;;14.00;99.90;;;;;;5039498;28;20206;-75
2022/07/01 02:57:49;;;;;;;7.40;7.10;;;14.10;99.90;;;;;;5039044;28;20351;-75
2022/07/01 03:00:15;;;;;;;9.07;8.63;;;14.10;99.90;;;;;;5037053;28;20670;-75
2022/07/01 03:02:41;;;;;;;5.50;4.97;;;14.20;99.90;;;;;;5039429;28;20185;-74
2022/07/01 03:05:07;;;;;;;5.53;5.33;;;14.10;99.90;;;;;;5036426;28;20299;-74
2022/07/01 03:07:34;;;;;;;7.43;7.03;;;14.10;99.90;;;;;;5036666;28;20186;-75
2022/07/01 03:10:01;;;;;;;8.60;8.20;;;14.10;99.90;;;;;;5037454;28;20724;-74
2022/07/01 03:12:30;;;;;;;7.47;7.17;;;14.20;99.90;;;;;;5036283;28;20555;-75
2022/07/01 03:15:06;;;;;;;8.77;8.27;;;14.20;99.90;;;;;;5036268;28;20221;-74
2022/07/01 03:17:33;;;;;;;7.57;7.27;;;14.20;99.90;;;;;;5035346;28;20289;-74
2022/07/01 03:20:00;;;;;;;14.33;13.70;;;14.30;99.90;;;;;;5037443;28;20171;-74
2022/07/01 03:22:29;;;;;;;9.27;8.13;;;14.30;99.90;;;;;;5036120;28;20183;-74
2022/07/01 03:24:56;;;;;;;11.90;11.30;;;14.20;99.90;;;;;;5037309;28;20226;-74
2022/07/01 03:27:23;;;;;;;8.20;7.63;;;14.10;99.90;;;;;;5036366;28;20669;-73
2022/07/01 03:29:49;;;;;;;9.80;9.20;;;14.10;99.90;;;;;;5037310;28;20269;-74
2022/07/01 03:32:15;;;;;;;11.87;11.27;;;14.20;99.90;;;;;;5037703;28;20270;-74
2022/07/01 03:34:43;;;;;;;7.70;7.40;;;14.10;99.90;;;;;;5036214;28;20203;-74
2022/07/01 03:37:10;;;;;;;10.93;10.53;;;14.10;99.90;;;;;;5036552;28;20242;-74
2022/07/01 03:39:37;;;;;;;12.07;11.47;;;14.20;99.90;;;;;;5037025;28;20181;-74
2022/07/01 03:42:05;;;;;;;11.17;10.50;;;14.20;99.90;;;;;;5036153;28;20233;-73
2022/07/01 03:44:31;;;;;;;14.17;13.27;;;14.20;99.90;;;;;;5035864;28;20206;-73
2022/07/01 03:46:57;;;;;;;11.73;10.93;;;14.10;99.90;;;;;;5035161;28;20244;-73
2022/07/01 03:49:23;;;;;;;9.33;8.93;;;14.10;99.90;;;;;;5037114;28;20183;-73
2022/07/01 03:51:50;;;;;;;14.20;8.87;;;14.20;99.90;;;;;;5037242;28;20187;-73
2022/07/01 03:54:32;;;;;;;9.07;8.63;;;14.20;99.90;;;;;;5037036;28;20207;-74
2022/07/01 03:57:04;;;;;;;8.43;8.03;;;14.30;99.90;;;;;;5034529;28;20210;-74
2022/07/01 03:59:33;;;;;;;8.33;7.83;;;14.20;99.90;;;;;;5034108;28;20183;-74
2022/07/01 04:01:59;;;;;;;16.33;15.57;;;14.20;99.90;;;;;;5035078;28;20222;-74
2022/07/01 04:04:27;;;;;;;15.40;14.13;;;14.20;99.90;;;;;;5033790;28;20207;-74
2022/07/01 04:06:58;;;;;;;8.53;8.13;;;14.30;99.90;;;;;;5033161;28;20309;-74
2022/07/01 04:09:24;;;;;;;10.03;9.53;;;14.30;99.90;;;;;;5032416;28;20190;-74
2022/07/01 04:11:51;;;;;;;14.10;13.50;;;14.20;99.90;;;;;;5033603;28;20183;-74
2022/07/01 04:14:17;;;;;;;10.10;9.60;;;14.20;99.90;;;;;;5033502;28;20203;-74
2022/07/01 04:16:44;;;;;;;16.43;15.67;;;14.20;99.90;;;;;;5033055;28;20206;-74
2022/07/01 04:19:11;;;;;;;13.40;12.70;;;14.20;99.90;;;;;;5033333;28;20270;-74
2022/07/01 04:24:24;;;;;;;10.63;9.97;;;14.30;99.90;;;;;;5033244;28;20248;-74
2022/07/01 04:26:51;;;;;;;12.33;11.43;;;14.30;99.90;;;;;;5033182;28;20217;-74
2022/07/01 04:29:17;;;;;;;13.60;12.90;;;14.30;99.90;;;;;;5033132;28;20187;-74
2022/07/01 04:31:43;;;;;;;13.57;12.97;;;14.30;99.90;;;;;;5033227;28;20222;-74
2022/07/01 04:34:09;;;;;;;12.13;11.43;;;14.20;99.90;;;;;;5033046;28;20206;-74
2022/07/01 04:36:36;;;;;;;13.87;13.17;;;14.20;99.90;;;;;;5033043;28;20277;-74
2022/07/01 04:39:04;;;;;;;16.77;15.93;;;14.10;99.90;;;;;;5032279;28;20187;-74
2022/07/01 04:44:14;;;;;;;9.00;8.53;;;14.00;99.90;;;;;;5032839;28;20206;-74
2022/07/01 04:46:40;;;;;;;6.50;6.20;;;14.00;99.90;;;;;;5031564;28;20215;-75
2022/07/01 04:49:07;;;;;;;8.23;7.60;;;14.00;99.90;;;;;;5032231;28;20178;-74
2022/07/01 04:51:34;;;;;;;8.27;7.73;;;14.00;99.90;;;;;;5031591;28;20274;-73
2022/07/01 04:54:01;;;;;;;8.20;7.87;;;14.00;99.90;;;;;;5032729;28;20215;-74
2022/07/01 04:56:28;;;;;;;7.33;6.93;;;14.00;99.90;;;;;;5032731;28;20233;-74
2022/07/01 04:58:57;;;;;;;8.23;7.70;;;14.10;99.90;;;;;;5031847;28;20648;-74
2022/07/01 05:01:23;;;;;;;7.10;6.70;;;14.20;99.90;;;;;;5031639;28;20548;-74
2022/07/01 05:06:15;;;;;;;8.10;7.60;;;14.20;99.90;;;;;;5032185;22;20301;-76
2022/07/01 05:08:41;;;;;;;9.93;9.53;;;14.20;99.90;;;;;;5011978;28;20179;-75
2022/07/01 05:11:07;;;;;;;10.17;9.70;;;14.20;99.90;;;;;;5023135;28;20206;-75
2022/07/01 05:13:33;;;;;;;8.10;7.50;;;14.20;99.90;;;;;;5023460;28;20215;-77
2022/07/01 05:15:59;;;;;;;7.60;7.20;;;14.20;99.90;;;;;;5030729;28;20214;-77
2022/07/01 05:23:54;;;;;;;7.40;7.00;;;14.30;99.90;;;;;;5032288;28;20857;-77
2022/07/01 05:26:20;;;;;;;10.70;10.00;;;14.20;99.90;;;;;;5032209;28;20233;-77
2022/07/01 05:28:46;;;;;;;13.83;13.13;;;14.30;99.90;;;;;;5031365;28;20187;-77
2022/07/01 05:31:12;;;;;;;14.33;13.53;;;14.20;99.90;;;;;;5032081;28;20179;-77
2022/07/01 05:33:38;;;;;;;12.17;11.27;;;14.20;99.90;;;;;;5030908;28;20179;-77
2022/07/01 05:36:04;;;;;;;13.80;11.13;;;14.30;99.90;;;;;;5031983;28;20202;-76
2022/07/01 05:38:30;;;;;;;8.00;7.60;;;14.30;99.90;;;;;;5031039;28;20211;-77
2022/07/01 05:40:56;;;;;;;6.83;6.53;;;14.30;99.90;;;;;;5032147;28;20224;-77
2022/07/01 05:43:22;;;;;;;7.73;7.33;;;14.20;99.90;;;;;;5030627;28;20179;-77
2022/07/01 05:45:47;;;;;;;11.77;10.67;;;14.20;99.90;;;;;;5030522;28;20695;-77
2022/07/01 05:48:13;;;;;;;9.60;8.90;;;14.10;99.90;;;;;;5031100;28;20272;-77
2022/07/01 05:50:46;;;;;;;9.33;8.67;;;14.20;99.90;;;;;;5031856;28;20182;-77
2022/07/01 05:53:12;;;;;;;19.03;18.10;;;14.20;99.90;;;;;;5031522;28;20683;-77
2022/07/01 05:55:38;;;;;;;23.03;21.90;;;14.20;99.90;;;;;;5031573;28;20202;-77
2022/07/01 05:58:03;;;;;;;24.93;23.53;;;14.20;99.90;;;;;;5030601;28;20210;-77
2022/07/01 06:00:29;;;;;;;13.57;12.90;;;14.30;99.90;;;;;;5031978;28;20175;-78
2022/07/01 06:02:55;;;;;;;13.97;12.97;;;14.30;99.90;;;;;;5031538;28;20207;-77
2022/07/01 06:05:21;;;;;;;12.63;12.00;;;14.20;99.90;;;;;;5031339;28;20214;-78
2022/07/01 06:07:46;;;;;;;18.20;17.20;;;14.30;99.90;;;;;;5030573;28;20194;-77
2022/07/01 06:10:12;;;;;;;13.77;12.70;;;14.30;99.90;;;;;;5031912;28;20191;-77
2022/07/01 06:12:39;;;;;;;10.90;10.30;;;14.30;99.90;;;;;;5030192;28;20221;-76
2022/07/01 06:15:10;;;;;;;17.20;16.33;;;14.30;99.90;;;;;;5031215;28;20203;-76
2022/07/01 06:17:37;;;;;;;17.23;16.43;;;14.40;99.90;;;;;;5029176;28;20275;-76
2022/07/01 06:20:04;;;;;;;14.93;14.13;;;14.40;99.90;;;;;;5030589;28;20627;-76
2022/07/01 06:22:31;;;;;;;19.30;18.37;;;14.40;99.90;;;;;;5029903;28;20717;-76
2022/07/01 06:24:56;;;;;;;12.43;11.80;;;14.40;99.90;;;;;;5031182;28;20250;-76
2022/07/01 06:27:23;;;;;;;13.47;12.57;;;14.30;99.90;;;;;;5030789;28;20191;-77
2022/07/01 06:29:49;;;;;;;9.17;8.63;;;14.30;99.90;;;;;;5031295;28;20186;-76
2022/07/01 06:32:15;;;;;;;12.80;12.00;;;14.40;99.90;;;;;;5031333;28;20655;-76
2022/07/01 06:34:41;;;;;;;9.93;9.33;;;14.40;99.90;;;;;;5031103;28;20299;-77
2022/07/01 06:37:07;;;;;;;10.67;10.07;;;14.40;99.90;;;;;;5030306;28;20693;-77
2022/07/01 06:39:33;;;;;;;10.63;10.00;;;14.30;99.90;;;;;;5030981;28;20186;-76
2022/07/01 06:41:59;;;;;;;13.30;12.47;;;14.40;99.90;;;;;;5029925;28;20175;-77
2022/07/01 06:44:25;;;;;;;15.47;14.27;;;14.40;99.90;;;;;;5029971;28;20199;-77
2022/07/01 06:46:51;;;;;;;16.20;15.10;;;14.40;99.90;;;;;;5030389;28;20567;-77
2022/07/01 06:49:17;;;;;;;12.40;11.63;;;14.50;99.90;;;;;;5030854;28;20179;-77
2022/07/01 06:51:43;;;;;;;17.77;16.43;;;14.50;99.90;;;;;;5051579;28;20233;-76
2022/07/01 06:54:09;;;;;;;17.13;16.10;;;14.70;99.90;;;;;;5030723;28;20197;-77
2022/07/01 06:56:35;;;;;;;25.13;23.23;;;14.70;99.90;;;;;;5031030;28;20188;-77
2022/07/01 06:59:01;;;;;;;15.33;14.03;;;14.70;99.90;;;;;;5030210;28;20175;-77
2022/07/01 07:01:28;;;;;;;17.20;15.87;;;14.80;99.90;;;;;;5030807;28;20639;-76
2022/07/01 07:03:54;;;;;;;27.00;25.43;;;15.00;99.90;;;;;;5030561;28;20183;-76
2022/07/01 07:06:21;;;;;;;34.50;32.47;;;15.10;99.90;;;;;;5029752;28;20185;-76
2022/07/01 07:08:46;;;;;;;11.53;10.97;;;15.10;99.90;;;;;;5028906;28;20187;-76
2022/07/01 07:11:14;;;;;;;37.83;35.87;;;15.10;99.90;;;;;;5030666;28;20578;-76
2022/07/01 07:13:41;;;;;;;32.87;31.03;;;15.10;99.90;;;;;;5030834;28;20179;-76
2022/07/01 07:16:06;;;;;;;24.33;23.03;;;15.20;99.90;;;;;;5030693;28;20598;-77
2022/07/01 07:18:32;;;;;;;27.23;25.83;;;15.20;99.90;;;;;;5029865;28;20218;-77
2022/07/01 07:20:58;;;;;;;12.90;12.23;;;15.20;99.90;;;;;;5030730;28;20183;-77
2022/07/01 07:23:24;;;;;;;13.67;13.03;;;15.10;99.90;;;;;;5030546;28;20171;-77
2022/07/01 07:25:50;;;;;;;14.47;13.27;;;14.90;99.90;;;;;;5030973;28;20298;-77
2022/07/01 07:28:15;;;;;;;17.73;16.77;;;14.80;99.90;;;;;;5029841;28;20269;-77
2022/07/01 07:30:41;;;;;;;21.23;19.87;;;14.80;99.90;;;;;;5030356;28;20193;-77
2022/07/01 07:33:07;;;;;;;12.37;11.77;;;14.80;99.90;;;;;;5033869;28;20179;-77
2022/07/01 07:35:33;;;;;;;12.40;11.70;;;14.80;99.90;;;;;;5034276;28;20202;-77
2022/07/01 07:37:58;;;;;;;14.63;13.97;;;14.80;99.90;;;;;;5032500;28;20210;-77
2022/07/01 07:40:25;;;;;;;17.67;16.83;;;14.70;99.90;;;;;;5034223;28;20183;-77
2022/07/01 07:42:51;;;;;;;12.93;12.30;;;14.80;99.90;;;;;;5034167;28;20179;-77
2022/07/01 07:45:17;;;;;;;15.50;14.80;;;14.90;99.90;;;;;;5034111;28;20202;-77
2022/07/01 07:47:48;;;;;;;7.60;7.20;;;15.00;99.90;;;;;;5033304;28;20266;-76
2022/07/01 07:50:14;;;;;;;30.13;28.73;;;14.90;99.90;;;;;;5034202;28;20647;-77
2022/07/01 07:52:41;;;;;;;19.03;17.97;;;15.00;99.90;;;;;;5034406;28;20183;-77
2022/07/01 07:55:09;;;;;;;26.63;24.97;;;15.20;99.90;;;;;;5033939;28;20207;-77
2022/07/01 07:57:39;;;;;;;15.67;14.97;;;15.50;99.90;;;;;;5032931;28;20219;-77
2022/07/01 08:00:07;;;;;;;16.83;15.83;;;15.50;99.90;;;;;;5033803;28;20198;-77
2022/07/01 08:02:34;;;;;;;9.60;9.17;;;15.40;99.90;;;;;;5033817;28;20273;-77
2022/07/01 08:05:00;;;;;;;8.53;8.17;;;15.40;99.90;;;;;;5033711;28;20214;-77
2022/07/01 08:07:25;;;;;;;6.37;6.07;;;15.30;99.90;;;;;;5032945;28;20636;-77
2022/07/01 08:09:51;;;;;;;5.60;5.40;;;15.30;99.90;;;;;;5033704;28;20183;-77
2022/07/01 08:12:17;;;;;;;9.60;9.10;;;15.30;99.90;;;;;;5032555;28;20182;-77
2022/07/01 08:14:43;;;;;;;25.63;24.43;;;15.40;99.90;;;;;;5032517;28;20226;-77
2022/07/01 08:17:09;;;;;;;9.90;9.40;;;15.50;99.90;;;;;;5031726;28;20676;-77
2022/07/01 08:19:35;;;;;;;7.70;7.40;;;15.60;99.90;;;;;;5033598;28;20179;-77
2022/07/01 08:22:01;;;;;;;6.07;5.80;;;15.40;99.90;;;;;;5033372;28;20181;-77
2022/07/01 08:24:27;;;;;;;6.33;6.03;;;15.30;99.90;;;;;;5033343;28;20210;-77
2022/07/01 08:26:52;;;;;;;7.60;7.30;;;15.30;99.90;;;;;;5034745;28;20180;-78
2022/07/01 08:29:18;;;;;;;6.90;6.40;;;15.30;99.90;;;;;;5054565;28;20208;-77
2022/07/01 08:31:44;;;;;;;5.93;5.43;;;15.30;99.90;;;;;;5048434;28;20183;-78
2022/07/01 08:34:09;;;;;;;7.40;6.90;;;15.40;99.90;;;;;;5035401;28;20655;-77
2022/07/01 08:36:35;;;;;;;6.47;5.80;;;15.50;99.90;;;;;;5032213;28;20203;-78
2022/07/01 08:39:02;;;;;;;5.43;5.13;;;15.60;99.90;;;;;;5031376;28;20245;-77
2022/07/01 08:41:28;;;;;;;6.87;6.50;;;15.70;99.90;;;;;;5032173;28;20585;-78
2022/07/01 08:43:54;;;;;;;6.20;5.90;;;15.70;99.90;;;;;;5032040;28;20186;-78
2022/07/01 08:46:22;;;;;;;6.17;5.87;;;15.70;99.90;;;;;;5033283;28;20171;-77
2022/07/01 08:48:48;;;;;;;5.00;4.80;;;15.70;99.90;;;;;;5032184;28;20236;-78
2022/07/01 08:51:14;;;;;;;5.90;5.70;;;15.80;99.90;;;;;;5031734;28;20194;-77
2022/07/01 08:53:40;;;;;;;7.40;7.10;;;15.70;99.90;;;;;;5032990;28;20190;-76
2022/07/01 08:58:50;;;;;;;8.53;8.13;;;15.50;99.90;;;;;;5031901;28;20269;-76
2022/07/01 09:01:22;;;;;;;4.80;4.50;;;15.40;99.90;;;;;;5032643;28;20172;-78
2022/07/01 09:03:55;;;;;;;5.20;4.83;;;15.30;99.90;;;;;;5032573;28;20237;-78
2022/07/01 09:06:26;;;;;;;4.90;4.70;;;15.30;99.90;;;;;;5031580;28;20274;-77
2022/07/01 09:08:52;;;;;;;6.20;5.90;;;15.20;99.90;;;;;;5032009;28;20185;-78
2022/07/01 09:11:20;;;;;;;7.30;6.90;;;15.10;99.90;;;;;;5032582;28;20171;-78
2022/07/01 09:14:06;;;;;;;5.87;5.47;;;15.20;99.90;;;;;;5032422;28;20179;-78
2022/07/01 09:16:41;;;;;;;5.50;5.30;;;15.20;99.90;;;;;;5032322;28;20185;-78
2022/07/01 09:19:06;;;;;;;5.33;5.00;;;15.30;99.90;;;;;;5030614;28;20254;-78
2022/07/01 09:21:33;;;;;;;6.50;6.13;;;15.30;99.90;;;;;;5031120;28;20378;-78
2022/07/01 09:24:03;;;;;;;6.00;5.70;;;15.50;99.90;;;;;;5032183;28;20550;-78
2022/07/01 09:26:29;;;;;;;7.97;7.47;;;15.60;99.90;;;;;;5031183;28;20585;-77
2022/07/01 09:28:56;;;;;;;7.47;7.17;;;15.80;99.90;;;;;;5031431;28;20446;-77
2022/07/01 09:31:34;;;;;;;8.37;7.97;;;16.00;99.90;;;;;;5031044;28;20183;-78
2022/07/01 09:34:10;;;;;;;11.03;10.53;;;16.10;99.90;;;;;;5032200;28;20178;-77
2022/07/01 09:36:40;;;;;;;16.63;15.90;;;16.10;99.90;;;;;;5030855;28;20548;-78
2022/07/01 09:39:06;;;;;;;23.90;22.77;;;16.00;99.90;;;;;;5031372;28;20329;-77
2022/07/01 09:41:38;;;;;;;19.83;18.80;;;15.90;99.90;;;;;;5031962;28;20187;-77
2022/07/01 09:44:06;;;;;;;14.63;13.87;;;15.80;99.90;;;;;;5031974;28;20226;-78
2022/07/01 09:46:32;;;;;;;27.23;25.80;;;15.70;99.90;;;;;;5031966;28;20647;-78
2022/07/01 09:48:58;;;;;;;29.47;27.93;;;15.60;99.90;;;;;;5031098;28;20179;-78
2022/07/01 09:51:23;;;;;;;13.77;13.10;;;15.50;99.90;;;;;;5031784;28;20175;-77
2022/07/01 09:53:49;;;;;;;8.03;7.43;;;15.40;99.90;;;;;;5030450;28;20745;-77
2022/07/01 09:56:15;;;;;;;9.53;8.80;;;15.20;99.90;;;;;;5031451;28;20206;-76
2022/07/01 09:58:42;;;;;;;11.87;11.17;;;15.10;99.90;;;;;;5030696;28;20202;-76
2022/07/01 10:01:09;;;;;;;8.80;8.30;;;15.10;99.90;;;;;;5031660;28;20210;-76
2022/07/01 10:03:38;;;;;;;8.53;7.90;;;14.90;99.90;;;;;;5030430;28;20581;-76
2022/07/01 10:06:24;;;;;;;9.67;8.87;;;15.00;99.90;;;;;;5031579;28;20645;-76
2022/07/01 10:09:11;;;;;;;8.70;8.30;;;14.90;99.90;;;;;;5039154;28;20186;-76
2022/07/01 10:11:42;;;;;;;11.90;10.90;;;14.80;99.90;;;;;;5041337;28;20750;-76
2022/07/01 10:14:11;;;;;;;14.77;13.97;;;14.70;99.90;;;;;;5031699;28;20183;-77
2022/07/01 10:16:38;;;;;;;38.87;36.50;;;14.70;99.90;;;;;;5031230;28;20179;-76
2022/07/01 10:19:24;;;;;;;47.30;44.53;;;14.80;99.90;;;;;;5029937;28;20621;-76
2022/07/01 10:21:52;;;;;;;102.27;96.60;;;14.80;99.90;;;;;;5031357;28;20175;-76
2022/07/01 10:24:19;;;;;;;83.30;78.63;;;14.70;99.90;;;;;;5031151;28;20195;-76
2022/07/01 10:26:45;;;;;;;54.67;51.87;;;14.60;99.90;;;;;;5030805;28;20631;-76
2022/07/01 10:29:30;;;;;;;55.83;52.77;;;14.50;99.90;;;;;;5031013;28;20237;-77
2022/07/01 10:32:21;;;;;;;40.67;38.47;;;14.40;99.90;;;;;;5031038;28;20215;-77
2022/07/01 10:34:47;;;;;;;31.73;30.10;;;14.50;99.90;;;;;;5028204;28;20626;-78
2022/07/01 10:37:13;;;;;;;21.93;20.83;;;14.40;99.90;;;;;;5030400;28;20245;-77
2022/07/01 10:39:54;;;;;;;22.97;21.63;;;14.50;99.90;;;;;;5030981;28;20191;-78
2022/07/01 10:42:20;;;;;;;23.83;22.70;;;14.60;99.90;;;;;;5030935;28;20225;-78
2022/07/01 10:45:09;;;;;;;24.40;23.10;;;14.60;99.90;;;;;;5030976;28;20197;-78
2022/07/01 10:47:37;;;;;;;18.83;17.93;;;14.70;99.90;;;;;;5028965;28;20183;-78
2022/07/01 10:50:11;;;;;;;60.87;57.87;;;14.70;99.90;;;;;;5030199;28;20207;-78
2022/07/01 10:52:38;;;;;;;59.47;56.57;;;14.70;99.90;;;;;;5031481;28;20551;-78
2022/07/01 10:55:07;;;;;;;54.73;51.77;;;14.80;99.90;;;;;;5030826;28;20627;-78
2022/07/01 10:57:40;;;;;;;74.63;70.83;;;14.80;99.90;;;;;;5028851;28;20219;-77
2022/07/01 11:00:06;;;;;;;69.97;66.47;;;14.90;99.90;;;;;;5030931;28;20533;-78
2022/07/01 11:02:39;;;;;;;68.40;64.90;;;14.90;99.90;;;;;;5029541;28;20236;-78
2022/07/01 11:05:09;;;;;;;71.60;67.90;;;15.00;99.90;;;;;;5045077;23;20238;-73
2022/07/01 11:07:38;;;;;;;69.00;65.60;;;15.10;99.90;;;;;;5011362;28;20194;-73
2022/07/01 11:10:07;;;;;;;15.23;14.33;;;15.20;99.90;;;;;;5014880;28;20187;-72
2022/07/01 11:12:33;;;;;;;7.07;6.53;;;15.30;99.90;;;;;;5015230;28;20183;-73
2022/07/01 11:15:05;;;;;;;9.37;8.70;;;15.40;99.90;;;;;;5023194;28;20203;-73
2022/07/01 11:17:32;;;;;;;10.60;9.77;;;15.60;99.90;;;;;;5035234;28;20214;-73
2022/07/01 11:19:59;;;;;;;13.33;12.50;;;15.90;99.90;;;;;;5034199;28;20685;-73
2022/07/01 11:22:28;;;;;;;7.40;6.83;;;16.20;99.90;;;;;;5036459;28;20179;-73
2022/07/01 11:25:02;;;;;;;11.07;10.43;;;16.70;99.90;;;;;;5035089;28;20221;-73
2022/07/01 11:27:29;;;;;;;28.80;27.33;;;17.10;99.90;;;;;;5032690;28;20191;-73
2022/07/01 11:30:01;;;;;;;8.23;7.83;;;17.50;99.90;;;;;;5034293;28;20217;-73
2022/07/01 11:32:37;;;;;;;17.03;16.10;;;17.70;99.90;;;;;;5034323;28;20274;-72
2022/07/01 11:39:21;;;;;;;20.07;18.97;;;18.00;99.90;;;;;;5033079;28;20198;-73
2022/07/01 11:40:55;;;;;;;14.90;14.20;;;18.70;99.90;;;;;;5034045;28;20175;-73
2022/07/01 11:43:24;;;;;;;31.40;29.63;;;19.00;99.90;;;;;;5032885;28;20662;-72
2022/07/01 11:45:50;;;;;;;56.00;53.30;;;19.50;99.90;;;;;;5033237;28;20211;-73
2022/07/01 11:48:35;;;;;;;32.47;30.77;;;20.40;99.90;;;;;;5033356;28;20576;-73
2022/07/01 11:51:05;;;;;;;103.10;98.27;;;21.00;99.90;;;;;;5034199;28;20191;-73
2022/07/01 11:53:31;;;;;;;110.80;105.23;;;21.00;99.90;;;;;;5033917;28;20179;-73
2022/07/01 11:55:57;;;;;;;157.48;149.77;;;20.90;99.90;;;;;;5033807;28;20207;-73
2022/07/01 11:58:23;;;;;;;84.57;80.53;;;21.10;99.90;;;;;;5032931;28;20234;-73
2022/07/01 12:00:49;;;;;;;23.48;22.30;;;21.90;99.90;;;;;;5033876;28;20678;-74
2022/07/01 12:03:31;;;;;;;4.60;4.40;;;22.70;99.90;;;;;;5034378;28;20647;-73
2022/07/01 12:05:57;;;;;;;4.93;4.70;;;22.70;99.90;;;;;;5032378;28;20264;-73
2022/07/01 12:08:24;;;;;;;6.07;5.68;;;22.50;99.90;;;;;;5032817;28;20179;-72
2022/07/01 12:10:50;;;;;;;4.13;3.92;;;22.10;99.90;;;;;;5034014;28;20195;-73
2022/07/01 12:13:23;;;;;;;5.50;5.28;;;21.60;99.90;;;;;;5032177;28;20186;-73
2022/07/01 12:15:49;;;;;;;5.47;5.18;;;21.20;99.90;;;;;;5033481;28;20210;-73
2022/07/01 12:18:16;;;;;;;5.72;5.32;;;20.70;99.90;;;;;;5030087;28;20284;-73
2022/07/01 12:20:54;;;;;;;4.20;4.00;;;20.20;99.90;;;;;;5032319;28;20644;-73
2022/07/01 12:23:20;;;;;;;4.13;4.03;;;19.80;99.90;;;;;;5033460;28;20818;-74
2022/07/01 12:25:50;;;;;;;6.40;6.03;;;19.50;99.90;;;;;;5033158;28;20226;-73
2022/07/01 12:28:26;;;;;;;25.27;23.70;;;19.20;99.90;;;;;;5032501;28;20194;-73
2022/07/01 12:31:12;;;;;;;64.27;61.17;;;18.80;99.90;;;;;;5033075;28;20193;-74
2022/07/01 12:33:48;;;;;;;111.63;106.10;;;18.50;99.90;;;;;;5033180;28;20504;-73
2022/07/01 12:36:15;;;;;;;79.83;75.93;;;18.60;99.90;;;;;;5032139;28;20788;-73
2022/07/01 12:38:42;;;;;;;103.13;98.13;;;18.80;99.90;;;;;;5032520;28;20584;-74
2022/07/01 12:41:33;;;;;;;68.50;65.07;;;19.20;99.90;;;;;;5033486;28;20187;-74
2022/07/01 12:44:00;;;;;;;103.90;98.80;;;19.40;99.90;;;;;;5033106;28;20185;-73
2022/07/01 12:46:30;;;;;;;60.47;57.30;;;19.70;99.90;;;;;;5032850;28;20291;-73
2022/07/01 12:48:57;;;;;;;37.50;35.60;;;20.20;99.90;;;;;;5032114;28;20198;-74
2022/07/01 12:51:31;;;;;;;12.40;11.57;;;20.60;99.90;;;;;;5033195;28;20187;-74
2022/07/01 12:53:58;;;;;;;5.93;5.57;;;20.80;99.90;;;;;;5032138;28;20195;-74
2022/07/01 12:56:25;;;;;;;10.70;10.15;;;20.90;99.90;;;;;;5033329;28;20205;-74